createdAt,value
2023-06-28T00:01:27.167Z,23.92
2023-06-28T00:03:55.586Z,23.93
2023-06-28T00:06:23.906Z,23.84
2023-06-28T00:08:52.372Z,23.74
2023-06-28T00:11:20.667Z,23.65
2023-06-28T00:13:48.761Z,23.63
2023-06-28T00:16:18.597Z,23.60
2023-06-28T00:18:46.751Z,23.58
2023-06-28T00:21:15.504Z,23.52
2023-06-28T00:23:43.992Z,23.48
2023-06-28T00:26:12.265Z,23.49
2023-06-28T00:28:40.462Z,23.48
2023-06-28T00:31:09.189Z,23.49
2023-06-28T00:33:39.147Z,23.48
2023-06-28T00:36:07.464Z,23.43
2023-06-28T00:38:37.450Z,23.38
2023-06-28T00:41:05.749Z,23.26
2023-06-28T00:43:33.842Z,23.19
2023-06-28T00:46:01.950Z,23.10
2023-06-28T00:48:30.468Z,23.05
2023-06-28T00:51:00.379Z,23.06
2023-06-28T00:53:28.644Z,23.08
2023-06-28T00:55:57.418Z,23.10
2023-06-28T00:58:26.711Z,23.11
2023-06-28T01:00:55.025Z,23.12
2023-06-28T01:03:23.422Z,23.14
2023-06-28T01:05:53.638Z,23.15
2023-06-28T01:08:23.485Z,23.20
2023-06-28T01:10:52.042Z,23.23
2023-06-28T01:13:21.188Z,23.24
2023-06-28T01:15:49.375Z,23.21
2023-06-28T01:18:21.362Z,23.23
2023-06-28T01:20:50.918Z,23.21
2023-06-28T01:23:20.653Z,23.14
2023-06-28T01:25:49.034Z,23.09
2023-06-28T01:28:18.054Z,23.05
2023-06-28T01:30:50.144Z,23.01
2023-06-28T01:33:18.423Z,22.97
2023-06-28T01:35:46.862Z,22.96
2023-06-28T01:38:16.277Z,22.88
2023-06-28T01:40:46.100Z,22.81
2023-06-28T01:43:14.249Z,22.78
2023-06-28T01:45:42.446Z,22.78
2023-06-28T01:48:10.670Z,22.78
2023-06-28T01:50:39.039Z,22.76
2023-06-28T01:53:08.331Z,22.76
2023-06-28T01:55:36.550Z,22.74
2023-06-28T01:58:06.112Z,22.75
2023-06-28T02:00:34.390Z,22.72
2023-06-28T02:03:02.839Z,22.66
2023-06-28T02:05:31.333Z,22.64
2023-06-28T02:07:59.523Z,22.64
2023-06-28T02:10:27.789Z,22.65
2023-06-28T02:12:55.966Z,22.63
2023-06-28T02:15:25.574Z,22.58
2023-06-28T02:17:56.882Z,22.55
2023-06-28T02:20:25.008Z,22.51
2023-06-28T02:22:53.226Z,22.49
2023-06-28T02:25:21.310Z,22.48
2023-06-28T02:27:49.426Z,22.44
2023-06-28T02:30:17.586Z,22.40
2023-06-28T02:32:47.999Z,22.37
2023-06-28T02:35:17.960Z,22.36
2023-06-28T02:37:46.176Z,22.35
2023-06-28T02:40:15.556Z,22.27
2023-06-28T02:42:43.718Z,22.17
2023-06-28T02:45:12.918Z,22.07
2023-06-28T02:47:41.074Z,21.99
2023-06-28T02:50:11.344Z,21.93
2023-06-28T02:52:39.484Z,21.94
2023-06-28T02:55:08.842Z,21.94
2023-06-28T02:57:38.260Z,21.93
2023-06-28T03:00:07.652Z,21.94
2023-06-28T03:02:36.042Z,21.95
2023-06-28T03:05:04.979Z,21.98
2023-06-28T03:07:34.689Z,21.98
2023-06-28T03:10:03.011Z,21.95
2023-06-28T03:12:31.674Z,21.88
2023-06-28T03:15:02.201Z,21.82
2023-06-28T03:17:31.629Z,21.77
2023-06-28T03:19:59.854Z,21.75
2023-06-28T03:22:27.956Z,21.72
2023-06-28T03:24:57.462Z,21.66
2023-06-28T03:27:25.950Z,21.56
2023-06-28T03:29:54.085Z,21.47
2023-06-28T03:32:22.256Z,21.39
2023-06-28T03:34:50.413Z,21.36
2023-06-28T03:37:18.700Z,21.30
2023-06-28T03:39:47.023Z,21.29
2023-06-28T03:42:16.584Z,21.26
2023-06-28T03:44:44.756Z,21.20
2023-06-28T03:47:12.952Z,21.12
2023-06-28T03:49:41.397Z,21.07
2023-06-28T03:52:10.023Z,21.03
2023-06-28T03:54:38.093Z,21.01
2023-06-28T03:57:07.084Z,20.95
2023-06-28T03:59:36.704Z,20.89
2023-06-28T04:02:05.103Z,20.83
2023-06-28T04:04:34.593Z,20.81
2023-06-28T04:07:03.105Z,20.77
2023-06-28T04:09:31.444Z,20.70
2023-06-28T04:11:59.569Z,20.66
2023-06-28T04:14:27.945Z,20.60
2023-06-28T04:16:57.556Z,20.52
2023-06-28T04:19:25.863Z,20.45
2023-06-28T04:21:54.408Z,20.42
2023-06-28T04:24:22.524Z,20.45
2023-06-28T04:26:50.650Z,20.47
2023-06-28T04:29:19.920Z,20.45
2023-06-28T04:31:49.750Z,20.43
2023-06-28T04:34:20.314Z,20.46
2023-06-28T04:36:53.075Z,20.50
2023-06-28T04:39:25.579Z,20.56
2023-06-28T04:41:53.888Z,20.60
2023-06-28T04:44:21.995Z,20.66
2023-06-28T04:46:50.301Z,20.72
2023-06-28T04:49:19.953Z,20.81
2023-06-28T04:51:48.137Z,20.92
2023-06-28T04:54:17.321Z,20.99
2023-06-28T04:56:46.352Z,21.07
2023-06-28T04:59:14.478Z,21.14
2023-06-28T05:01:43.357Z,21.16
2023-06-28T05:04:11.597Z,21.20
2023-06-28T05:06:41.283Z,21.30
2023-06-28T05:09:09.513Z,21.40
2023-06-28T05:11:37.690Z,21.48
2023-06-28T05:14:05.858Z,21.55
2023-06-28T05:16:34.029Z,21.66
2023-06-28T05:19:02.274Z,21.82
2023-06-28T05:21:30.427Z,21.97
2023-06-28T05:23:59.975Z,22.20
2023-06-28T05:26:28.087Z,22.40
2023-06-28T05:28:56.234Z,22.55
2023-06-28T05:31:24.573Z,22.68
2023-06-28T05:33:52.827Z,22.90
2023-06-28T05:36:23.112Z,23.17
2023-06-28T05:38:53.796Z,23.39
2023-06-28T05:41:23.353Z,23.64
2023-06-28T05:43:51.682Z,23.81
2023-06-28T05:46:19.933Z,23.99
2023-06-28T05:48:48.290Z,24.14
2023-06-28T05:51:16.499Z,24.27
2023-06-28T05:53:44.568Z,24.42
2023-06-28T05:56:12.738Z,24.54
2023-06-28T05:58:42.456Z,24.68
2023-06-28T06:01:10.666Z,24.73
2023-06-28T06:03:38.889Z,24.79
2023-06-28T06:06:07.149Z,24.87
2023-06-28T06:08:35.388Z,24.95
2023-06-28T06:11:04.683Z,25.02
2023-06-28T06:13:33.266Z,25.14
2023-06-28T06:16:03.002Z,25.26
2023-06-28T06:18:31.225Z,25.30
2023-06-28T06:20:59.312Z,25.33
2023-06-28T06:23:27.433Z,25.31
2023-06-28T06:25:55.520Z,25.40
2023-06-28T06:28:23.635Z,25.49
2023-06-28T06:30:52.258Z,25.60
2023-06-28T06:33:22.545Z,25.70
2023-06-28T06:35:50.951Z,25.86
2023-06-28T06:38:19.208Z,26.01
2023-06-28T06:40:47.271Z,26.11
2023-06-28T06:43:15.423Z,26.19
2023-06-28T06:45:43.515Z,26.22
2023-06-28T06:48:12.064Z,26.21
2023-06-28T06:50:41.996Z,26.19
2023-06-28T06:53:10.658Z,26.13
2023-06-28T06:55:38.749Z,26.13
2023-06-28T06:58:06.945Z,26.19
2023-06-28T07:00:35.168Z,26.25
2023-06-28T07:03:03.392Z,26.34
2023-06-28T07:05:31.708Z,26.40
2023-06-28T07:08:01.329Z,26.38
2023-06-28T07:10:29.428Z,26.34
2023-06-28T07:12:58.075Z,26.36
2023-06-28T07:15:27.581Z,26.41
2023-06-28T07:17:55.828Z,26.48
2023-06-28T07:20:24.239Z,26.51
2023-06-28T07:22:52.362Z,26.64
2023-06-28T07:25:21.924Z,26.72
2023-06-28T07:27:50.095Z,26.86
2023-06-28T07:30:18.259Z,26.99
2023-06-28T07:32:46.519Z,27.04
2023-06-28T07:35:14.777Z,27.03
2023-06-28T07:37:42.945Z,26.95
2023-06-28T07:40:11.522Z,26.84
2023-06-28T07:42:42.916Z,26.76
2023-06-28T07:45:12.156Z,26.78
2023-06-28T07:47:42.343Z,26.87
2023-06-28T07:50:11.834Z,26.96
2023-06-28T07:52:40.002Z,26.93
2023-06-28T07:55:09.185Z,26.86
2023-06-28T07:57:37.306Z,26.66
2023-06-28T08:00:08.755Z,26.49
2023-06-28T08:02:36.912Z,26.39
2023-06-28T08:05:05.169Z,26.36
2023-06-28T08:07:33.317Z,26.38
2023-06-28T08:10:01.381Z,26.37
2023-06-28T08:12:29.656Z,26.35
2023-06-28T08:14:57.748Z,26.42
2023-06-28T08:17:27.795Z,26.50
2023-06-28T08:19:56.552Z,26.62
2023-06-28T08:22:26.233Z,26.81
2023-06-28T08:24:54.473Z,27.06
2023-06-28T08:27:22.641Z,27.34
2023-06-28T08:29:50.802Z,27.57
2023-06-28T08:32:19.048Z,27.77
2023-06-28T08:34:49.240Z,27.95
2023-06-28T08:37:18.914Z,28.12
2023-06-28T08:39:47.049Z,28.29
2023-06-28T08:42:16.329Z,28.36
2023-06-28T08:44:45.469Z,28.39
2023-06-28T08:47:14.331Z,28.39
2023-06-28T08:49:43.563Z,28.48
2023-06-28T08:52:13.816Z,28.58
2023-06-28T08:54:43.034Z,28.72
2023-06-28T08:57:13.012Z,28.88
2023-06-28T08:59:42.313Z,28.94
2023-06-28T09:02:11.517Z,28.98
2023-06-28T09:04:40.433Z,29.03
2023-06-28T09:07:09.153Z,29.00
2023-06-28T09:09:41.808Z,29.06
2023-06-28T09:12:11.892Z,29.03
2023-06-28T09:14:40.067Z,29.05
2023-06-28T09:17:08.259Z,29.13
2023-06-28T09:19:37.685Z,29.13
2023-06-28T09:22:06.250Z,29.14
2023-06-28T09:24:35.737Z,29.24
2023-06-28T09:27:07.549Z,29.39
2023-06-28T09:29:36.442Z,29.51
2023-06-28T09:32:06.595Z,29.63
2023-06-28T09:34:36.271Z,29.68
2023-06-28T09:37:06.650Z,29.75
2023-06-28T09:39:38.895Z,29.67
2023-06-28T09:42:09.054Z,29.54
2023-06-28T09:44:37.177Z,29.48
2023-06-28T09:47:06.382Z,29.41
2023-06-28T09:49:35.625Z,29.41
2023-06-28T09:52:07.329Z,29.49
2023-06-28T09:54:37.236Z,29.59
2023-06-28T09:57:06.026Z,29.68
2023-06-28T09:59:37.346Z,29.81
2023-06-28T10:02:09.075Z,29.82
2023-06-28T10:04:38.540Z,29.67
2023-06-28T10:07:08.339Z,29.53
2023-06-28T10:09:38.587Z,29.39
2023-06-28T10:12:11.747Z,29.26
2023-06-28T10:14:51.345Z,29.24
2023-06-28T10:17:20.165Z,29.31
2023-06-28T10:19:50.856Z,29.41
2023-06-28T10:22:20.367Z,29.50
2023-06-28T10:24:49.041Z,29.52
2023-06-28T10:27:18.051Z,29.54
2023-06-28T10:29:49.320Z,29.50
2023-06-28T10:32:17.876Z,29.30
2023-06-28T10:34:49.300Z,29.22
2023-06-28T10:37:22.684Z,29.20
2023-06-28T10:39:52.184Z,29.15
2023-06-28T10:42:20.810Z,29.06
2023-06-28T10:44:57.546Z,28.96
2023-06-28T10:47:26.690Z,28.97
2023-06-28T10:50:12.268Z,28.99
2023-06-28T10:52:51.212Z,29.00
2023-06-28T10:55:23.039Z,29.01
2023-06-28T10:58:06.768Z,29.01
2023-06-28T11:00:47.611Z,29.02
2023-06-28T11:03:16.399Z,28.98
2023-06-28T11:05:54.992Z,28.92
2023-06-28T11:08:37.302Z,28.92
2023-06-28T11:11:05.447Z,28.94
2023-06-28T11:13:35.164Z,28.96
2023-06-28T11:16:14.006Z,28.97
2023-06-28T11:18:42.258Z,29.00
2023-06-28T11:21:16.532Z,29.02
2023-06-28T11:23:47.292Z,28.98
2023-06-28T11:26:17.615Z,28.99
2023-06-28T11:28:50.948Z,29.04
2023-06-28T11:31:23.717Z,29.12
2023-06-28T11:33:54.100Z,29.16
2023-06-28T11:36:25.074Z,29.15
2023-06-28T11:38:54.221Z,29.18
2023-06-28T11:41:22.611Z,29.25
2023-06-28T11:43:51.195Z,29.27
2023-06-28T11:46:22.691Z,29.30
2023-06-28T11:48:52.219Z,29.30
2023-06-28T11:51:20.414Z,29.32
2023-06-28T11:53:50.238Z,29.32
2023-06-28T11:56:18.452Z,29.35
2023-06-28T11:58:46.579Z,29.33
2023-06-28T12:01:26.147Z,29.33
2023-06-28T12:03:54.414Z,29.32
2023-06-28T12:06:22.748Z,29.30
2023-06-28T12:08:50.951Z,29.32
2023-06-28T12:11:19.599Z,29.33
2023-06-28T12:13:47.724Z,29.34
2023-06-28T12:16:17.607Z,29.35
2023-06-28T12:19:00.700Z,29.34
2023-06-28T12:21:30.562Z,29.35
2023-06-28T12:24:13.898Z,29.39
2023-06-28T12:26:42.691Z,29.45
2023-06-28T12:29:12.336Z,29.49
2023-06-28T12:31:47.101Z,29.50
2023-06-28T12:34:22.719Z,29.48
2023-06-28T12:36:52.805Z,29.50
2023-06-28T12:39:23.909Z,29.51
2023-06-28T12:42:07.154Z,29.57
2023-06-28T12:44:51.061Z,29.64
2023-06-28T12:47:19.319Z,29.72
2023-06-28T12:49:49.164Z,29.79
2023-06-28T12:52:17.382Z,29.83
2023-06-28T12:54:46.835Z,29.87
2023-06-28T12:57:15.213Z,29.90
2023-06-28T12:59:43.816Z,29.90
2023-06-28T13:02:12.584Z,29.89
2023-06-28T13:04:41.568Z,29.90
2023-06-28T13:07:12.985Z,29.95
2023-06-28T13:09:41.295Z,29.98
2023-06-28T13:12:10.178Z,30.02
2023-06-28T13:14:38.307Z,30.04
2023-06-28T13:17:07.369Z,30.05
2023-06-28T13:19:35.978Z,30.08
2023-06-28T13:22:04.170Z,30.09
2023-06-28T13:24:33.686Z,30.10
2023-06-28T13:27:01.900Z,30.11
2023-06-28T13:29:30.237Z,30.10
2023-06-28T13:31:58.480Z,30.08
2023-06-28T13:34:26.644Z,30.10
2023-06-28T13:36:54.855Z,30.12
2023-06-28T13:39:23.052Z,30.14
2023-06-28T13:41:52.602Z,30.13
2023-06-28T13:44:20.764Z,30.09
2023-06-28T13:46:49.117Z,30.12
2023-06-28T13:49:18.672Z,30.12
2023-06-28T13:51:46.892Z,30.14
2023-06-28T13:54:15.093Z,30.14
2023-06-28T13:56:43.220Z,30.15
2023-06-28T13:59:12.775Z,30.17
2023-06-28T14:01:41.018Z,30.20
2023-06-28T14:04:10.709Z,30.20
2023-06-28T14:06:38.933Z,30.17
2023-06-28T14:09:07.154Z,30.17
2023-06-28T14:11:35.414Z,30.14
2023-06-28T14:14:03.624Z,30.12
2023-06-28T14:16:33.267Z,30.12
2023-06-28T14:19:01.484Z,30.12
2023-06-28T14:21:29.628Z,30.15
2023-06-28T14:23:57.840Z,30.16
2023-06-28T14:26:26.065Z,30.17
2023-06-28T14:28:55.795Z,30.16
2023-06-28T14:31:25.928Z,30.17
2023-06-28T14:33:55.647Z,30.17
2023-06-28T14:36:24.520Z,30.19
2023-06-28T14:38:52.727Z,30.17
2023-06-28T14:41:20.906Z,30.17
2023-06-28T14:43:49.124Z,30.17
2023-06-28T14:46:17.395Z,30.14
2023-06-28T14:48:45.596Z,30.11
2023-06-28T14:51:15.177Z,30.10
2023-06-28T14:53:43.383Z,30.09
2023-06-28T14:56:11.752Z,30.09
2023-06-28T14:58:40.006Z,30.10
2023-06-28T15:01:08.235Z,30.09
2023-06-28T15:03:36.598Z,30.08
2023-06-28T15:06:04.904Z,30.04
2023-06-28T15:08:34.790Z,29.96
2023-06-28T15:11:03.015Z,29.94
2023-06-28T15:13:31.209Z,29.94
2023-06-28T15:15:59.439Z,29.94
2023-06-28T15:18:29.986Z,29.98
2023-06-28T15:20:58.495Z,29.98
2023-06-28T15:23:26.819Z,29.98
2023-06-28T15:25:56.450Z,30.02
2023-06-28T15:28:24.747Z,30.04
2023-06-28T15:30:53.754Z,30.07
2023-06-28T15:33:21.960Z,30.09
2023-06-28T15:35:50.175Z,30.12
2023-06-28T15:38:18.406Z,30.13
2023-06-28T15:40:50.505Z,30.12
2023-06-28T15:43:20.273Z,30.11
2023-06-28T15:45:48.404Z,30.14
2023-06-28T15:48:16.580Z,30.16
2023-06-28T15:50:45.505Z,30.17
2023-06-28T15:53:13.871Z,30.18
2023-06-28T15:55:42.106Z,30.19
2023-06-28T15:58:10.488Z,30.18
2023-06-28T16:00:40.264Z,30.18
2023-06-28T16:03:08.564Z,30.18
2023-06-28T16:05:36.760Z,30.16
2023-06-28T16:08:05.323Z,30.17
2023-06-28T16:10:33.547Z,30.14
2023-06-28T16:13:04.539Z,30.11
2023-06-28T16:15:32.756Z,30.10
2023-06-28T16:18:02.403Z,30.10
2023-06-28T16:20:30.661Z,30.07
2023-06-28T16:22:59.324Z,30.06
2023-06-28T16:25:27.504Z,30.05
2023-06-28T16:27:57.304Z,30.02
2023-06-28T16:30:25.548Z,29.99
2023-06-28T16:32:53.762Z,30.00
2023-06-28T16:35:23.345Z,29.97
2023-06-28T16:37:51.569Z,29.97
2023-06-28T16:40:19.692Z,29.97
2023-06-28T16:42:47.869Z,29.95
2023-06-28T16:45:16.113Z,29.96
2023-06-28T16:47:44.485Z,29.93
2023-06-28T16:50:12.817Z,29.92
2023-06-28T16:52:42.390Z,29.88
2023-06-28T16:55:10.856Z,29.84
2023-06-28T16:57:39.000Z,29.80
2023-06-28T17:00:08.787Z,29.79
2023-06-28T17:02:36.986Z,29.78
2023-06-28T17:05:05.804Z,29.79
2023-06-28T17:07:33.979Z,29.78
2023-06-28T17:10:03.647Z,29.74
2023-06-28T17:12:31.799Z,29.70
2023-06-28T17:15:00.017Z,29.66
2023-06-28T17:17:28.318Z,29.65
2023-06-28T17:19:56.491Z,29.63
2023-06-28T17:22:24.697Z,29.61
2023-06-28T17:24:52.938Z,29.59
2023-06-28T17:27:22.467Z,29.57
2023-06-28T17:29:50.709Z,29.56
2023-06-28T17:32:18.953Z,29.52
2023-06-28T17:34:47.156Z,29.51
2023-06-28T17:37:15.350Z,29.51
2023-06-28T17:39:43.709Z,29.46
2023-06-28T17:42:12.845Z,29.43
2023-06-28T17:44:42.461Z,29.42
2023-06-28T17:47:10.628Z,29.36
2023-06-28T17:49:39.202Z,29.30
2023-06-28T17:52:07.820Z,29.22
2023-06-28T17:54:36.726Z,29.19
2023-06-28T17:57:05.554Z,29.13
2023-06-28T17:59:33.804Z,29.10
2023-06-28T18:02:03.384Z,29.03
2023-06-28T18:04:31.633Z,29.01
2023-06-28T18:06:59.891Z,28.97
2023-06-28T18:09:28.084Z,28.94
2023-06-28T18:11:58.459Z,28.83
2023-06-28T18:14:26.673Z,28.83
2023-06-28T18:16:54.888Z,28.80
2023-06-28T18:19:24.494Z,28.76
2023-06-28T18:21:52.645Z,28.69
2023-06-28T18:24:20.828Z,28.65
2023-06-28T18:26:49.164Z,28.64
2023-06-28T18:29:17.381Z,28.61
2023-06-28T18:31:45.701Z,28.56
2023-06-28T18:34:13.980Z,28.53
2023-06-28T18:36:43.740Z,28.50
2023-06-28T18:39:11.949Z,28.47
2023-06-28T18:41:40.634Z,28.43
2023-06-28T18:44:09.291Z,28.41
2023-06-28T18:46:37.744Z,28.35
2023-06-28T18:49:05.985Z,28.30
2023-06-28T18:51:37.024Z,28.26
2023-06-28T18:54:07.466Z,28.21
2023-06-28T18:56:35.673Z,28.18
2023-06-28T18:59:09.278Z,28.15
2023-06-28T19:01:39.395Z,28.09
2023-06-28T19:04:08.092Z,28.04
2023-06-28T19:06:36.337Z,27.99
2023-06-28T19:09:04.470Z,27.97
2023-06-28T19:11:34.066Z,27.95
2023-06-28T19:14:02.703Z,27.91
2023-06-28T19:16:31.193Z,27.90
2023-06-28T19:18:59.524Z,27.86
2023-06-28T19:21:27.808Z,27.82
2023-06-28T19:23:56.476Z,27.81
2023-06-28T19:26:24.764Z,27.78
2023-06-28T19:28:54.476Z,27.73
2023-06-28T19:31:22.854Z,27.71
2023-06-28T19:33:51.050Z,27.71
2023-06-28T19:36:19.320Z,27.69
2023-06-28T19:38:47.615Z,27.65
2023-06-28T19:41:15.750Z,27.66
2023-06-28T19:43:44.044Z,27.65
2023-06-28T19:46:14.850Z,27.64
2023-06-28T19:48:43.203Z,27.62
2023-06-28T19:51:11.349Z,27.60
2023-06-28T19:53:39.556Z,27.59
2023-06-28T19:56:07.804Z,27.58
2023-06-28T19:58:36.220Z,27.56
2023-06-28T20:01:05.767Z,27.55
2023-06-28T20:03:37.423Z,27.53
2023-06-28T20:06:06.049Z,27.50
2023-06-28T20:08:34.452Z,27.48
2023-06-28T20:11:03.262Z,27.45
2023-06-28T20:13:32.534Z,27.40
2023-06-28T20:16:00.912Z,27.39
2023-06-28T20:18:29.232Z,27.37
2023-06-28T20:20:58.866Z,27.35
2023-06-28T20:23:27.166Z,27.33
2023-06-28T20:25:55.410Z,27.27
2023-06-28T20:28:23.750Z,27.20
2023-06-28T20:30:51.971Z,27.17
2023-06-28T20:33:20.090Z,27.16
2023-06-28T20:35:48.561Z,27.14
2023-06-28T20:38:18.435Z,27.12
2023-06-28T20:40:47.381Z,27.07
2023-06-28T20:43:18.068Z,26.96
2023-06-28T20:45:46.387Z,26.89
2023-06-28T20:48:14.604Z,26.88
2023-06-28T20:50:43.640Z,26.84
2023-06-28T20:53:12.067Z,26.83
2023-06-28T20:55:42.143Z,26.81
2023-06-28T20:58:10.522Z,26.83
2023-06-28T21:00:38.693Z,26.81
2023-06-28T21:03:06.857Z,26.71
2023-06-28T21:05:34.976Z,26.61
2023-06-28T21:08:03.677Z,26.55
2023-06-28T21:10:32.027Z,26.54
2023-06-28T21:13:01.535Z,26.53
2023-06-28T21:15:29.699Z,26.54
2023-06-28T21:17:57.868Z,26.51
2023-06-28T21:20:26.067Z,26.49
2023-06-28T21:22:54.456Z,26.49
2023-06-28T21:25:22.587Z,26.51
2023-06-28T21:27:50.759Z,26.53
2023-06-28T21:30:20.595Z,26.54
2023-06-28T21:32:48.943Z,26.52
2023-06-28T21:35:17.897Z,26.45
2023-06-28T21:37:45.995Z,26.43
2023-06-28T21:40:14.240Z,26.37
2023-06-28T21:42:42.474Z,26.36
2023-06-28T21:45:11.489Z,26.33
2023-06-28T21:47:41.119Z,26.29
2023-06-28T21:50:09.977Z,26.26
2023-06-28T21:52:38.209Z,26.22
2023-06-28T21:55:07.120Z,26.17
2023-06-28T21:57:35.307Z,26.17
2023-06-28T22:00:06.986Z,26.18
2023-06-28T22:02:35.205Z,26.17
2023-06-28T22:05:05.032Z,26.10
2023-06-28T22:07:33.285Z,26.08
2023-06-28T22:10:02.688Z,26.04
2023-06-28T22:12:31.635Z,26.01
2023-06-28T22:15:00.861Z,25.94
2023-06-28T22:17:29.764Z,25.89
2023-06-28T22:19:58.029Z,25.86
2023-06-28T22:22:27.843Z,25.84
2023-06-28T22:24:56.298Z,25.83
2023-06-28T22:27:24.691Z,25.84
2023-06-28T22:29:52.820Z,25.79
2023-06-28T22:32:20.900Z,25.78
2023-06-28T22:34:49.006Z,25.77
2023-06-28T22:37:17.150Z,25.78
2023-06-28T22:39:46.720Z,25.78
2023-06-28T22:42:14.806Z,25.77
2023-06-28T22:44:43.060Z,25.76
2023-06-28T22:47:11.394Z,25.71
2023-06-28T22:49:40.318Z,25.67
2023-06-28T22:52:09.000Z,25.63
2023-06-28T22:54:37.172Z,25.58
2023-06-28T22:57:07.182Z,25.51
2023-06-28T22:59:35.490Z,25.46
2023-06-28T23:02:03.820Z,25.42
2023-06-28T23:04:32.053Z,25.37
2023-06-28T23:07:00.343Z,25.33
2023-06-28T23:09:28.608Z,25.31
2023-06-28T23:11:58.941Z,25.24
2023-06-28T23:14:28.518Z,25.19
2023-06-28T23:16:58.352Z,25.16
2023-06-28T23:19:26.476Z,25.12
2023-06-28T23:21:57.829Z,25.01
2023-06-28T23:24:26.621Z,24.90
2023-06-28T23:26:54.793Z,24.83
2023-06-28T23:29:25.640Z,24.81
2023-06-28T23:31:57.840Z,24.70
2023-06-28T23:34:27.077Z,24.65
2023-06-28T23:36:55.201Z,24.62
2023-06-28T23:39:23.316Z,24.59
2023-06-28T23:41:51.425Z,24.51
2023-06-28T23:44:19.529Z,24.45
2023-06-28T23:46:47.707Z,24.41
2023-06-28T23:49:17.404Z,24.40
2023-06-28T23:51:45.511Z,24.38
2023-06-28T23:54:13.629Z,24.39
2023-06-28T23:56:41.751Z,24.39
2023-06-28T23:59:11.371Z,24.45
